IBE06YE LEMD-LIRF
Flight info
| Callsign | IBE06YE |
|---|---|
| Flight time | 1h 46m |
| Altitude | 38000 |
| Route | PINAR N870 PONEN/N0477F370 N870 SEROX/N0474F380 N870 BCN N725 OSPOK/N0472F370 DCT NOLVI DCT ORKUM/N0470F380 DCT ELSAG DCT ALG DCT TINTO DCT VALMA |
| Aircraft | A346/H-SDE2E3FGHIJ3J4J5M1RWXY/LB1D1 |
Departure
| Time | 2026-05-04 14:05 |
|---|---|
| Airport | Adolfo Suárez Madrid–Barajas Airport (LEMD) |
Arrival
| Time | 2026-05-04 15:51 |
|---|---|
| Airport | Rome–Fiumicino Leonardo da Vinci International Airport (LIRF) |
| Time | Latitude | Longitude | Altitude | Speed | Heading |
|---|---|---|---|---|---|
| 2026-05-04 13:32 | 40.49599 | -3.56888 | 1980 ft | 0 kts | 90° |
| 2026-05-04 13:55 | 40.49598 | -3.56921 | 1983 ft | 4 kts | 84° |
| 2026-05-04 13:55 | 40.49596 | -3.56954 | 1982 ft | 2 kts | 86° |
| 2026-05-04 13:56 | 40.49592 | -3.56983 | 1983 ft | 4 kts | 64° |
| 2026-05-04 13:56 | 40.49581 | -3.57000 | 1988 ft | 4 kts | 25° |
| 2026-05-04 13:56 | 40.49535 | -3.57003 | 1987 ft | 2 kts | 360° |
| 2026-05-04 13:57 | 40.49534 | -3.57003 | 1984 ft | 0 kts | 360° |
| 2026-05-04 13:59 | 40.49535 | -3.57003 | 1984 ft | 1 kts | 360° |
| 2026-05-04 13:59 | 40.49685 | -3.57003 | 1986 ft | 22 kts | 360° |
| 2026-05-04 14:00 | 40.49843 | -3.57005 | 1987 ft | 23 kts | 359° |
| 2026-05-04 14:00 | 40.50025 | -3.56943 | 1986 ft | 3 kts | 84° |
| 2026-05-04 14:00 | 40.50025 | -3.56856 | 1987 ft | 18 kts | 90° |
| 2026-05-04 14:01 | 40.50025 | -3.56705 | 1985 ft | 13 kts | 90° |
| 2026-05-04 14:01 | 40.50026 | -3.56567 | 1980 ft | 21 kts | 90° |
| 2026-05-04 14:01 | 40.50025 | -3.56295 | 1971 ft | 4 kts | 96° |
| 2026-05-04 14:02 | 40.49979 | -3.56257 | 1960 ft | 15 kts | 170° |
| 2026-05-04 14:02 | 40.49852 | -3.56249 | 1964 ft | 16 kts | 178° |
| 2026-05-04 14:02 | 40.49730 | -3.56247 | 1970 ft | 19 kts | 180° |
| 2026-05-04 14:02 | 40.49596 | -3.56247 | 1967 ft | 18 kts | 170° |
| 2026-05-04 14:03 | 40.49541 | -3.56153 | 1968 ft | 14 kts | 84° |
| 2026-05-04 14:03 | 40.49552 | -3.56015 | 1968 ft | 14 kts | 86° |
| 2026-05-04 14:03 | 40.49543 | -3.55883 | 1973 ft | 15 kts | 109° |
| 2026-05-04 14:03 | 40.49473 | -3.55776 | 1976 ft | 13 kts | 146° |
| 2026-05-04 14:04 | 40.49450 | -3.55754 | 1976 ft | 15 kts | 143° |
| 2026-05-04 14:04 | 40.49163 | -3.55462 | 1963 ft | 89 kts | 142° |
| 2026-05-04 14:04 | 40.48497 | -3.54784 | 1949 ft | 151 kts | 142° |
| 2026-05-04 14:05 | 40.46440 | -3.52707 | 2677 ft | 200 kts | 149° |
| 2026-05-04 14:05 | 40.45317 | -3.51640 | 3403 ft | 204 kts | 149° |
| 2026-05-04 14:05 | 40.44163 | -3.50529 | 4043 ft | 208 kts | 147° |
| 2026-05-04 14:06 | 40.42967 | -3.49350 | 4534 ft | 221 kts | 145° |
| 2026-05-04 14:06 | 40.41711 | -3.48058 | 4972 ft | 239 kts | 146° |
| 2026-05-04 14:06 | 40.40346 | -3.46650 | 5414 ft | 259 kts | 146° |
| 2026-05-04 14:06 | 40.38872 | -3.45161 | 5989 ft | 275 kts | 146° |
| 2026-05-04 14:07 | 40.37334 | -3.43600 | 6797 ft | 281 kts | 147° |
| 2026-05-04 14:07 | 40.35717 | -3.42142 | 7703 ft | 283 kts | 152° |
| 2026-05-04 14:07 | 40.34006 | -3.40856 | 8632 ft | 285 kts | 155° |
| 2026-05-04 14:07 | 40.32280 | -3.39535 | 9568 ft | 291 kts | 146° |
| 2026-05-04 14:08 | 40.30955 | -3.37530 | 10414 ft | 303 kts | 121° |
| 2026-05-04 14:08 | 40.30350 | -3.34805 | 11011 ft | 324 kts | 95° |
| 2026-05-04 14:08 | 40.30367 | -3.31763 | 11563 ft | 343 kts | 89° |
| 2026-05-04 14:08 | 40.30576 | -3.28562 | 12076 ft | 363 kts | 79° |
| 2026-05-04 14:09 | 40.33003 | -3.22473 | 13132 ft | 396 kts | 49° |
| 2026-05-04 14:09 | 40.34837 | -3.19698 | 13793 ft | 409 kts | 47° |
| 2026-05-04 14:10 | 40.38830 | -3.14291 | 15252 ft | 419 kts | 31° |
| 2026-05-04 14:10 | 40.41469 | -3.12756 | 16077 ft | 415 kts | 10° |
| 2026-05-04 14:10 | 40.44314 | -3.12476 | 16930 ft | 409 kts | 351° |
| 2026-05-04 14:10 | 40.47093 | -3.13204 | 17787 ft | 409 kts | 343° |
| 2026-05-04 14:11 | 40.49883 | -3.14089 | 18520 ft | 415 kts | 342° |
| 2026-05-04 14:11 | 40.55575 | -3.15840 | 19949 ft | 424 kts | 343° |
| 2026-05-04 14:11 | 40.58460 | -3.16697 | 20673 ft | 427 kts | 343° |
| 2026-05-04 14:12 | 40.61368 | -3.17553 | 21402 ft | 431 kts | 343° |
| 2026-05-04 14:12 | 40.64269 | -3.18405 | 22119 ft | 434 kts | 343° |
| 2026-05-04 14:12 | 40.70221 | -3.20158 | 23547 ft | 442 kts | 343° |
| 2026-05-04 14:13 | 40.73231 | -3.21047 | 24122 ft | 446 kts | 343° |
| 2026-05-04 14:13 | 40.76292 | -3.21840 | 24658 ft | 454 kts | 349° |
| 2026-05-04 14:13 | 40.79491 | -3.21651 | 25138 ft | 469 kts | 7° |
| 2026-05-04 14:13 | 40.82604 | -3.20199 | 25682 ft | 482 kts | 24° |
| 2026-05-04 14:14 | 40.85335 | -3.17556 | 26189 ft | 495 kts | 42° |
| 2026-05-04 14:14 | 40.88580 | -3.09491 | 27219 ft | 509 kts | 75° |
| 2026-05-04 14:14 | 40.89425 | -3.04989 | 27776 ft | 512 kts | 76° |
| 2026-05-04 14:15 | 40.91137 | -2.95730 | 28704 ft | 522 kts | 76° |
| 2026-05-04 14:15 | 40.92913 | -2.86415 | 30183 ft | 520 kts | 76° |
| 2026-05-04 14:16 | 40.94706 | -2.77149 | 31385 ft | 520 kts | 76° |
| 2026-05-04 14:16 | 40.95605 | -2.72506 | 31988 ft | 520 kts | 76° |
| 2026-05-04 14:17 | 40.97387 | -2.63284 | 33130 ft | 520 kts | 77° |
| 2026-05-04 14:17 | 40.98280 | -2.58640 | 33723 ft | 520 kts | 77° |
| 2026-05-04 14:17 | 41.00051 | -2.49356 | 34740 ft | 519 kts | 77° |
| 2026-05-04 14:18 | 41.00931 | -2.44720 | 35222 ft | 519 kts | 77° |
| 2026-05-04 14:18 | 41.02691 | -2.35443 | 36143 ft | 518 kts | 77° |
| 2026-05-04 14:19 | 41.04442 | -2.26219 | 36859 ft | 521 kts | 77° |
| 2026-05-04 14:19 | 41.05329 | -2.21538 | 37141 ft | 524 kts | 77° |
| 2026-05-04 14:19 | 41.06213 | -2.16840 | 37409 ft | 526 kts | 77° |
| 2026-05-04 14:19 | 41.07096 | -2.12124 | 37729 ft | 528 kts | 77° |
| 2026-05-04 14:20 | 41.07981 | -2.07394 | 37954 ft | 530 kts | 77° |
| 2026-05-04 14:20 | 41.09756 | -1.97880 | 37949 ft | 531 kts | 77° |
| 2026-05-04 14:21 | 41.12395 | -1.83650 | 37953 ft | 531 kts | 78° |
| 2026-05-04 14:21 | 41.14146 | -1.74134 | 37953 ft | 530 kts | 78° |
| 2026-05-04 14:22 | 41.15887 | -1.64619 | 37947 ft | 530 kts | 78° |
| 2026-05-04 14:22 | 41.17620 | -1.55104 | 37945 ft | 530 kts | 78° |
| 2026-05-04 14:23 | 41.20195 | -1.40894 | 37940 ft | 529 kts | 78° |
| 2026-05-04 14:24 | 41.21908 | -1.31380 | 37945 ft | 529 kts | 78° |
| 2026-05-04 14:24 | 41.23614 | -1.21861 | 37941 ft | 529 kts | 78° |
| 2026-05-04 14:25 | 41.25313 | -1.12335 | 37918 ft | 529 kts | 79° |
| 2026-05-04 14:25 | 41.27831 | -0.98124 | 37924 ft | 528 kts | 79° |
| 2026-05-04 14:26 | 41.29507 | -0.88590 | 37923 ft | 528 kts | 79° |
| 2026-05-04 14:26 | 41.31174 | -0.79064 | 37926 ft | 528 kts | 79° |
| 2026-05-04 14:27 | 41.32841 | -0.69511 | 37913 ft | 531 kts | 80° |
| 2026-05-04 14:27 | 41.34414 | -0.59965 | 37909 ft | 530 kts | 83° |
| 2026-05-04 14:28 | 41.35277 | -0.50248 | 37922 ft | 526 kts | 91° |
| 2026-05-04 14:28 | 41.35341 | -0.40531 | 37914 ft | 523 kts | 95° |
| 2026-05-04 14:29 | 41.35132 | -0.21193 | 37910 ft | 523 kts | 95° |
| 2026-05-04 14:30 | 41.35039 | -0.11493 | 37907 ft | 523 kts | 95° |
| 2026-05-04 14:31 | 41.34891 | 0.03051 | 37890 ft | 524 kts | 95° |
| 2026-05-04 14:32 | 41.34666 | 0.22435 | 37895 ft | 526 kts | 95° |
| 2026-05-04 14:32 | 41.34536 | 0.32189 | 37903 ft | 527 kts | 96° |
| 2026-05-04 14:33 | 41.34398 | 0.41948 | 37878 ft | 526 kts | 96° |
| 2026-05-04 14:33 | 41.34253 | 0.51675 | 37901 ft | 525 kts | 96° |
| 2026-05-04 14:34 | 41.34101 | 0.61334 | 37899 ft | 525 kts | 96° |
| 2026-05-04 14:34 | 41.33941 | 0.71057 | 37907 ft | 525 kts | 96° |
| 2026-05-04 14:35 | 41.33773 | 0.80775 | 37893 ft | 524 kts | 96° |
| 2026-05-04 14:35 | 41.33596 | 0.90468 | 37904 ft | 523 kts | 96° |
| 2026-05-04 14:36 | 41.33411 | 1.00097 | 37935 ft | 523 kts | 96° |
| 2026-05-04 14:36 | 41.33216 | 1.09782 | 37940 ft | 523 kts | 96° |
| 2026-05-04 14:37 | 41.33016 | 1.19480 | 37933 ft | 523 kts | 96° |
| 2026-05-04 14:37 | 41.32807 | 1.29175 | 37939 ft | 524 kts | 96° |
| 2026-05-04 14:38 | 41.32590 | 1.38812 | 37942 ft | 524 kts | 97° |
| 2026-05-04 14:38 | 41.32365 | 1.48517 | 37941 ft | 524 kts | 97° |
| 2026-05-04 14:39 | 41.32132 | 1.58225 | 37928 ft | 524 kts | 97° |
| 2026-05-04 14:39 | 41.31888 | 1.67933 | 37937 ft | 524 kts | 97° |
| 2026-05-04 14:40 | 41.31510 | 1.82437 | 37946 ft | 524 kts | 97° |
| 2026-05-04 14:40 | 41.31248 | 1.92135 | 37933 ft | 524 kts | 97° |
| 2026-05-04 14:41 | 41.30976 | 2.01865 | 37955 ft | 526 kts | 97° |
| 2026-05-04 14:42 | 41.29106 | 2.20899 | 37954 ft | 516 kts | 109° |
| 2026-05-04 14:42 | 41.27540 | 2.30229 | 37941 ft | 516 kts | 109° |
| 2026-05-04 14:43 | 41.25970 | 2.39562 | 37949 ft | 518 kts | 109° |
| 2026-05-04 14:43 | 41.24414 | 2.48854 | 37947 ft | 518 kts | 109° |
| 2026-05-04 14:44 | 41.22846 | 2.58203 | 37941 ft | 518 kts | 109° |
| 2026-05-04 14:44 | 41.21270 | 2.67550 | 37888 ft | 519 kts | 109° |
| 2026-05-04 14:45 | 41.19682 | 2.76911 | 37932 ft | 518 kts | 109° |
| 2026-05-04 14:45 | 41.18092 | 2.86253 | 37942 ft | 518 kts | 109° |
| 2026-05-04 14:46 | 41.16503 | 2.95530 | 37931 ft | 518 kts | 109° |
| 2026-05-04 14:46 | 41.14898 | 3.04852 | 37937 ft | 518 kts | 109° |
| 2026-05-04 14:47 | 41.13284 | 3.14176 | 37935 ft | 518 kts | 109° |
| 2026-05-04 14:47 | 41.11664 | 3.23490 | 37936 ft | 518 kts | 109° |
| 2026-05-04 14:48 | 41.10047 | 3.32739 | 37935 ft | 517 kts | 109° |
| 2026-05-04 14:48 | 41.08412 | 3.42041 | 37936 ft | 517 kts | 109° |
| 2026-05-04 14:49 | 41.06769 | 3.51343 | 37932 ft | 518 kts | 110° |
| 2026-05-04 14:49 | 41.05118 | 3.60641 | 37938 ft | 518 kts | 110° |
| 2026-05-04 14:50 | 41.03467 | 3.69898 | 37938 ft | 518 kts | 110° |
| 2026-05-04 14:50 | 41.01801 | 3.79186 | 37936 ft | 518 kts | 110° |
| 2026-05-04 14:51 | 41.00124 | 3.88466 | 37937 ft | 518 kts | 109° |
| 2026-05-04 14:51 | 40.98444 | 3.97737 | 37943 ft | 518 kts | 110° |
| 2026-05-04 14:52 | 40.96768 | 4.06940 | 37940 ft | 518 kts | 110° |
| 2026-05-04 14:52 | 40.95071 | 4.16208 | 37939 ft | 517 kts | 110° |
| 2026-05-04 14:53 | 40.93365 | 4.25464 | 37933 ft | 517 kts | 109° |
| 2026-05-04 14:53 | 40.91657 | 4.34703 | 37948 ft | 516 kts | 110° |
| 2026-05-04 14:54 | 40.89941 | 4.43934 | 37952 ft | 516 kts | 110° |
| 2026-05-04 14:54 | 40.88236 | 4.53089 | 37950 ft | 516 kts | 110° |
| 2026-05-04 14:55 | 40.86513 | 4.62308 | 37942 ft | 515 kts | 109° |
| 2026-05-04 14:55 | 40.85206 | 4.71661 | 37950 ft | 519 kts | 102° |
| 2026-05-04 14:56 | 40.84328 | 4.81150 | 37958 ft | 520 kts | 102° |
| 2026-05-04 14:56 | 40.83472 | 4.90577 | 37958 ft | 520 kts | 102° |
| 2026-05-04 14:57 | 40.82591 | 5.00044 | 37949 ft | 519 kts | 102° |
| 2026-05-04 14:57 | 40.81697 | 5.09503 | 37959 ft | 518 kts | 102° |
| 2026-05-04 14:58 | 40.80795 | 5.18943 | 37964 ft | 518 kts | 102° |
| 2026-05-04 14:58 | 40.79891 | 5.28323 | 37964 ft | 518 kts | 102° |
| 2026-05-04 14:59 | 40.78973 | 5.37761 | 37951 ft | 518 kts | 102° |
| 2026-05-04 15:00 | 40.77577 | 5.51940 | 37963 ft | 519 kts | 102° |
| 2026-05-04 15:00 | 40.76637 | 5.61405 | 37968 ft | 520 kts | 102° |
| 2026-05-04 15:01 | 40.75215 | 5.75555 | 37965 ft | 521 kts | 102° |
| 2026-05-04 15:01 | 40.74250 | 5.85064 | 37975 ft | 523 kts | 102° |
| 2026-05-04 15:02 | 40.73276 | 5.94576 | 37984 ft | 523 kts | 102° |
| 2026-05-04 15:02 | 40.72295 | 6.04080 | 37983 ft | 523 kts | 102° |
| 2026-05-04 15:03 | 40.71308 | 6.13538 | 37976 ft | 524 kts | 102° |
| 2026-05-04 15:03 | 40.70304 | 6.23084 | 37982 ft | 525 kts | 102° |
| 2026-05-04 15:04 | 40.69293 | 6.32638 | 37989 ft | 526 kts | 102° |
| 2026-05-04 15:04 | 40.68274 | 6.42187 | 37990 ft | 525 kts | 102° |
| 2026-05-04 15:05 | 40.67248 | 6.51677 | 37987 ft | 528 kts | 102° |
| 2026-05-04 15:05 | 40.66205 | 6.61284 | 37992 ft | 529 kts | 102° |
| 2026-05-04 15:06 | 40.65156 | 6.70894 | 38000 ft | 529 kts | 102° |
| 2026-05-04 15:07 | 40.63565 | 6.85307 | 37996 ft | 529 kts | 102° |
| 2026-05-04 15:07 | 40.62497 | 6.94832 | 38002 ft | 530 kts | 102° |
| 2026-05-04 15:08 | 40.61419 | 7.04456 | 38004 ft | 530 kts | 102° |
| 2026-05-04 15:08 | 40.60332 | 7.14074 | 38009 ft | 530 kts | 102° |
| 2026-05-04 15:09 | 40.59236 | 7.23681 | 38014 ft | 530 kts | 102° |
| 2026-05-04 15:09 | 40.58138 | 7.33218 | 38014 ft | 530 kts | 102° |
| 2026-05-04 15:10 | 40.56903 | 7.47720 | 38017 ft | 533 kts | 94° |
| 2026-05-04 15:11 | 40.57515 | 7.62386 | 38004 ft | 536 kts | 84° |
| 2026-05-04 15:11 | 40.58404 | 7.72088 | 38014 ft | 537 kts | 84° |
| 2026-05-04 15:12 | 40.59273 | 7.81846 | 38023 ft | 537 kts | 84° |
| 2026-05-04 15:12 | 40.60104 | 7.91623 | 38034 ft | 537 kts | 84° |
| 2026-05-04 15:13 | 40.60917 | 8.01385 | 38038 ft | 536 kts | 84° |
| 2026-05-04 15:13 | 40.61729 | 8.11155 | 38056 ft | 536 kts | 84° |
| 2026-05-04 15:14 | 40.62806 | 8.20802 | 38071 ft | 536 kts | 78° |
| 2026-05-04 15:14 | 40.64739 | 8.30293 | 38065 ft | 536 kts | 70° |
| 2026-05-04 15:15 | 40.67453 | 8.39429 | 38055 ft | 533 kts | 65° |
| 2026-05-04 15:15 | 40.70338 | 8.48426 | 38041 ft | 532 kts | 65° |
| 2026-05-04 15:16 | 40.74599 | 8.61880 | 38043 ft | 532 kts | 65° |
| 2026-05-04 15:17 | 40.78834 | 8.75432 | 38039 ft | 531 kts | 65° |
| 2026-05-04 15:17 | 40.83039 | 8.88973 | 38053 ft | 532 kts | 65° |
| 2026-05-04 15:18 | 40.85823 | 8.97970 | 38056 ft | 532 kts | 65° |
| 2026-05-04 15:19 | 40.90008 | 9.11567 | 38056 ft | 532 kts | 65° |
| 2026-05-04 15:19 | 40.94185 | 9.25205 | 38064 ft | 532 kts | 65° |
| 2026-05-04 15:20 | 40.96941 | 9.34231 | 38086 ft | 532 kts | 65° |
| 2026-05-04 15:20 | 40.99716 | 9.43346 | 38060 ft | 534 kts | 66° |
| 2026-05-04 15:21 | 41.02476 | 9.52478 | 37824 ft | 533 kts | 65° |
| 2026-05-04 15:21 | 41.05218 | 9.61555 | 37272 ft | 527 kts | 65° |
| 2026-05-04 15:22 | 41.06575 | 9.66054 | 37000 ft | 524 kts | 65° |
| 2026-05-04 15:22 | 41.07909 | 9.70485 | 36744 ft | 523 kts | 66° |
| 2026-05-04 15:22 | 41.10604 | 9.79462 | 36211 ft | 524 kts | 66° |
| 2026-05-04 15:23 | 41.11952 | 9.83968 | 35955 ft | 525 kts | 66° |
| 2026-05-04 15:23 | 41.13295 | 9.88471 | 35626 ft | 525 kts | 66° |
| 2026-05-04 15:23 | 41.14642 | 9.92993 | 35134 ft | 526 kts | 66° |
| 2026-05-04 15:23 | 41.15991 | 9.97521 | 34528 ft | 527 kts | 66° |
| 2026-05-04 15:24 | 41.18690 | 10.06607 | 33180 ft | 530 kts | 66° |
| 2026-05-04 15:24 | 41.21370 | 10.15674 | 32137 ft | 530 kts | 66° |
| 2026-05-04 15:25 | 41.24064 | 10.24825 | 32082 ft | 531 kts | 66° |
| 2026-05-04 15:26 | 41.28096 | 10.38561 | 32072 ft | 530 kts | 66° |
| 2026-05-04 15:26 | 41.29426 | 10.43109 | 31878 ft | 524 kts | 66° |
| 2026-05-04 15:26 | 41.32076 | 10.52179 | 30622 ft | 528 kts | 66° |
| 2026-05-04 15:27 | 41.33405 | 10.56741 | 29982 ft | 528 kts | 67° |
| 2026-05-04 15:27 | 41.36027 | 10.65786 | 28562 ft | 525 kts | 67° |
| 2026-05-04 15:28 | 41.38645 | 10.74835 | 27197 ft | 519 kts | 67° |
| 2026-05-04 15:28 | 41.39934 | 10.79302 | 26548 ft | 515 kts | 68° |
| 2026-05-04 15:28 | 41.42452 | 10.88065 | 26105 ft | 499 kts | 68° |
| 2026-05-04 15:29 | 41.43692 | 10.92391 | 26100 ft | 499 kts | 68° |
| 2026-05-04 15:30 | 41.48609 | 11.09616 | 24780 ft | 494 kts | 68° |
| 2026-05-04 15:30 | 41.52191 | 11.22344 | 23051 ft | 478 kts | 69° |
| 2026-05-04 15:31 | 41.54479 | 11.30518 | 22111 ft | 461 kts | 69° |
| 2026-05-04 15:31 | 41.55588 | 11.34500 | 21680 ft | 453 kts | 69° |
| 2026-05-04 15:32 | 41.58823 | 11.46061 | 20436 ft | 432 kts | 69° |
| 2026-05-04 15:32 | 41.60922 | 11.53481 | 19633 ft | 420 kts | 69° |
| 2026-05-04 15:33 | 41.62936 | 11.60623 | 18185 ft | 406 kts | 69° |
| 2026-05-04 15:34 | 41.65831 | 11.70954 | 15549 ft | 384 kts | 69° |
| 2026-05-04 15:34 | 41.66760 | 11.74276 | 14741 ft | 377 kts | 69° |
| 2026-05-04 15:34 | 41.68565 | 11.80732 | 13350 ft | 359 kts | 69° |
| 2026-05-04 15:35 | 41.70186 | 11.86557 | 13155 ft | 318 kts | 69° |
| 2026-05-04 15:35 | 41.70961 | 11.89348 | 13157 ft | 321 kts | 69° |
| 2026-05-04 15:35 | 41.71731 | 11.92129 | 13053 ft | 316 kts | 69° |
| 2026-05-04 15:36 | 41.73263 | 11.97664 | 12259 ft | 316 kts | 70° |
| 2026-05-04 15:36 | 41.74166 | 12.00313 | 11876 ft | 310 kts | 51° |
| 2026-05-04 15:36 | 41.75768 | 12.02072 | 11531 ft | 291 kts | 18° |
| 2026-05-04 15:37 | 41.77686 | 12.02410 | 11147 ft | 274 kts | 345° |
| 2026-05-04 15:37 | 41.79473 | 12.01644 | 10709 ft | 269 kts | 336° |
| 2026-05-04 15:37 | 41.81229 | 12.00763 | 10228 ft | 270 kts | 337° |
| 2026-05-04 15:37 | 41.82999 | 11.99917 | 9719 ft | 270 kts | 338° |
| 2026-05-04 15:38 | 41.84748 | 11.99121 | 9193 ft | 269 kts | 339° |
| 2026-05-04 15:38 | 41.86522 | 11.98340 | 8714 ft | 268 kts | 340° |
| 2026-05-04 15:38 | 41.88296 | 11.97573 | 8231 ft | 268 kts | 340° |
| 2026-05-04 15:38 | 41.90066 | 11.96814 | 7778 ft | 267 kts | 340° |
| 2026-05-04 15:39 | 41.91832 | 11.96061 | 7335 ft | 266 kts | 341° |
| 2026-05-04 15:39 | 41.93591 | 11.95312 | 6898 ft | 265 kts | 341° |
| 2026-05-04 15:39 | 41.97090 | 11.93829 | 6122 ft | 263 kts | 341° |
| 2026-05-04 15:40 | 41.98841 | 11.93086 | 6084 ft | 265 kts | 341° |
| 2026-05-04 15:40 | 42.00596 | 11.92343 | 6077 ft | 264 kts | 341° |
| 2026-05-04 15:40 | 42.02325 | 11.91611 | 5875 ft | 259 kts | 341° |
| 2026-05-04 15:40 | 42.04034 | 11.90884 | 5490 ft | 262 kts | 341° |
| 2026-05-04 15:41 | 42.05773 | 11.90140 | 5133 ft | 262 kts | 341° |
| 2026-05-04 15:41 | 42.07519 | 11.89484 | 4936 ft | 258 kts | 354° |
| 2026-05-04 15:41 | 42.09228 | 11.89881 | 4738 ft | 248 kts | 30° |
| 2026-05-04 15:41 | 42.10615 | 11.91177 | 4609 ft | 239 kts | 40° |
| 2026-05-04 15:42 | 42.11905 | 11.92553 | 4369 ft | 235 kts | 43° |
| 2026-05-04 15:42 | 42.12650 | 11.93593 | 4170 ft | 232 kts | 65° |
| 2026-05-04 15:42 | 42.12933 | 11.95599 | 4071 ft | 217 kts | 107° |
| 2026-05-04 15:42 | 42.12308 | 11.97416 | 4085 ft | 214 kts | 124° |
| 2026-05-04 15:43 | 42.11527 | 11.99122 | 4071 ft | 214 kts | 124° |
| 2026-05-04 15:43 | 42.10766 | 12.00849 | 4065 ft | 214 kts | 123° |
| 2026-05-04 15:43 | 42.09797 | 12.03170 | 4071 ft | 214 kts | 122° |
| 2026-05-04 15:43 | 42.09094 | 12.04916 | 3908 ft | 211 kts | 122° |
| 2026-05-04 15:44 | 42.08639 | 12.06064 | 3778 ft | 209 kts | 122° |
| 2026-05-04 15:44 | 42.07961 | 12.07777 | 3545 ft | 205 kts | 121° |
| 2026-05-04 15:44 | 42.07307 | 12.09446 | 3336 ft | 199 kts | 122° |
| 2026-05-04 15:44 | 42.06638 | 12.11046 | 3175 ft | 194 kts | 133° |
| 2026-05-04 15:45 | 42.05621 | 12.12192 | 3105 ft | 191 kts | 151° |
| 2026-05-04 15:45 | 42.04421 | 12.12940 | 3116 ft | 191 kts | 160° |
| 2026-05-04 15:45 | 42.03168 | 12.13539 | 3112 ft | 191 kts | 162° |
| 2026-05-04 15:45 | 42.01916 | 12.14089 | 3094 ft | 183 kts | 163° |
| 2026-05-04 15:46 | 42.00738 | 12.14590 | 3083 ft | 175 kts | 164° |
| 2026-05-04 15:46 | 41.99591 | 12.15071 | 3110 ft | 175 kts | 164° |
| 2026-05-04 15:46 | 41.98413 | 12.15563 | 3110 ft | 175 kts | 164° |
| 2026-05-04 15:46 | 41.97279 | 12.16035 | 3075 ft | 166 kts | 163° |
| 2026-05-04 15:47 | 41.96231 | 12.16474 | 3064 ft | 153 kts | 163° |
| 2026-05-04 15:47 | 41.95232 | 12.16892 | 2954 ft | 149 kts | 163° |
| 2026-05-04 15:47 | 41.94253 | 12.17303 | 2745 ft | 147 kts | 163° |
| 2026-05-04 15:47 | 41.93281 | 12.17711 | 2554 ft | 146 kts | 163° |
| 2026-05-04 15:48 | 41.92311 | 12.18117 | 2359 ft | 146 kts | 163° |
| 2026-05-04 15:48 | 41.91346 | 12.18522 | 2172 ft | 145 kts | 163° |
| 2026-05-04 15:48 | 41.89423 | 12.19332 | 1663 ft | 144 kts | 165° |
| 2026-05-04 15:49 | 41.88467 | 12.19732 | 1462 ft | 144 kts | 165° |
| 2026-05-04 15:49 | 41.87526 | 12.20125 | 1270 ft | 143 kts | 164° |
| 2026-05-04 15:49 | 41.86575 | 12.20526 | 1088 ft | 143 kts | 164° |
| 2026-05-04 15:49 | 41.85627 | 12.20924 | 902 ft | 143 kts | 163° |
| 2026-05-04 15:50 | 41.84680 | 12.21323 | 684 ft | 142 kts | 164° |
| 2026-05-04 15:50 | 41.83737 | 12.21721 | 458 ft | 142 kts | 164° |
| 2026-05-04 15:50 | 41.82800 | 12.22119 | 303 ft | 141 kts | 164° |
| 2026-05-04 15:50 | 41.81869 | 12.22511 | 132 ft | 140 kts | 163° |
| 2026-05-04 15:51 | 41.80958 | 12.22891 | 26 ft | 124 kts | 163° |
| 2026-05-04 15:51 | 41.80344 | 12.23145 | 28 ft | 64 kts | 162° |
| 2026-05-04 15:51 | 41.79982 | 12.23294 | 26 ft | 51 kts | 162° |
| 2026-05-04 15:51 | 41.79703 | 12.23412 | 23 ft | 23 kts | 161° |
| 2026-05-04 15:52 | 41.79595 | 12.23477 | 25 ft | 24 kts | 150° |
| 2026-05-04 15:52 | 41.79462 | 12.23609 | 23 ft | 23 kts | 135° |
| 2026-05-04 15:52 | 41.79389 | 12.23713 | 24 ft | 8 kts | 133° |
| 2026-05-04 15:52 | 41.79378 | 12.23729 | 23 ft | 3 kts | 133° |
| 2026-05-04 15:53 | 41.79372 | 12.23737 | 23 ft | 0 kts | 133° |
| 2026-05-04 15:53 | 41.79371 | 12.23738 | 23 ft | 1 kts | 132° |
| 2026-05-04 15:53 | 41.79359 | 12.23756 | 25 ft | 4 kts | 131° |
| 2026-05-04 15:54 | 41.79334 | 12.23799 | 24 ft | 7 kts | 127° |
| 2026-05-04 15:54 | 41.79292 | 12.23876 | 27 ft | 13 kts | 127° |
| 2026-05-04 15:54 | 41.79206 | 12.23948 | 24 ft | 17 kts | 162° |
| 2026-05-04 15:54 | 41.79080 | 12.24001 | 25 ft | 21 kts | 163° |
| 2026-05-04 15:55 | 41.78931 | 12.24062 | 24 ft | 24 kts | 162° |
| 2026-05-04 15:55 | 41.78780 | 12.24127 | 26 ft | 21 kts | 162° |
| 2026-05-04 15:55 | 41.78702 | 12.24171 | 25 ft | 7 kts | 136° |
| 2026-05-04 15:55 | 41.78702 | 12.24240 | 24 ft | 5 kts | 76° |
| 2026-05-04 15:56 | 41.78711 | 12.24294 | 22 ft | 8 kts | 72° |
| 2026-05-04 15:56 | 41.78717 | 12.24359 | 25 ft | 7 kts | 118° |
| 2026-05-04 15:56 | 41.78694 | 12.24387 | 22 ft | 0 kts | 149° |
| 2026-05-04 15:56 | 41.78673 | 12.24400 | 26 ft | 5 kts | 161° |
| 2026-05-04 15:57 | 41.78665 | 12.24403 | 22 ft | 1 kts | 162° |
| 2026-05-04 15:57 | 41.78663 | 12.24404 | 22 ft | 0 kts | 162° |